sensor_id;sensor_type;location;lat;lon;timestamp;temperature;humidity
80695;DHT22;70059;42.702;23.312;2023-10-08T00:01:36;13.80;45.80
80695;DHT22;70059;42.702;23.312;2023-10-08T00:04:10;13.80;46.50
80695;DHT22;70059;42.702;23.312;2023-10-08T00:06:36;13.80;46.80
80695;DHT22;70059;42.702;23.312;2023-10-08T00:09:03;13.80;47.30
80695;DHT22;70059;42.702;23.312;2023-10-08T00:11:34;13.80;46.40
80695;DHT22;70059;42.702;23.312;2023-10-08T00:14:00;13.80;46.20
80695;DHT22;70059;42.702;23.312;2023-10-08T00:16:26;13.70;46.40
80695;DHT22;70059;42.702;23.312;2023-10-08T00:18:54;13.70;46.80
80695;DHT22;70059;42.702;23.312;2023-10-08T00:21:24;13.60;46.80
80695;DHT22;70059;42.702;23.312;2023-10-08T00:23:53;13.60;46.80
80695;DHT22;70059;42.702;23.312;2023-10-08T00:26:22;13.60;46.60
80695;DHT22;70059;42.702;23.312;2023-10-08T00:29:06;13.60;46.40
80695;DHT22;70059;42.702;23.312;2023-10-08T00:31:32;13.50;46.70
80695;DHT22;70059;42.702;23.312;2023-10-08T00:34:04;13.50;45.80
80695;DHT22;70059;42.702;23.312;2023-10-08T00:36:41;13.60;45.00
80695;DHT22;70059;42.702;23.312;2023-10-08T00:39:07;13.70;45.10
80695;DHT22;70059;42.702;23.312;2023-10-08T00:41:40;13.60;44.40
80695;DHT22;70059;42.702;23.312;2023-10-08T00:44:08;13.60;44.70
80695;DHT22;70059;42.702;23.312;2023-10-08T00:46:35;13.40;45.60
80695;DHT22;70059;42.702;23.312;2023-10-08T00:49:17;13.40;45.40
80695;DHT22;70059;42.702;23.312;2023-10-08T00:51:53;13.40;45.70
80695;DHT22;70059;42.702;23.312;2023-10-08T00:54:31;13.30;45.50
80695;DHT22;70059;42.702;23.312;2023-10-08T00:56:59;13.20;45.30
80695;DHT22;70059;42.702;23.312;2023-10-08T00:59:33;13.30;45.50
80695;DHT22;70059;42.702;23.312;2023-10-08T01:02:10;13.20;45.50
80695;DHT22;70059;42.702;23.312;2023-10-08T01:04:41;13.10;45.70
80695;DHT22;70059;42.702;23.312;2023-10-08T01:07:10;13.00;45.90
80695;DHT22;70059;42.702;23.312;2023-10-08T01:09:42;13.00;46.50
80695;DHT22;70059;42.702;23.312;2023-10-08T01:12:20;13.00;46.70
80695;DHT22;70059;42.702;23.312;2023-10-08T01:14:46;12.90;47.00
80695;DHT22;70059;42.702;23.312;2023-10-08T01:17:15;13.00;46.40
80695;DHT22;70059;42.702;23.312;2023-10-08T01:19:45;12.90;46.80
80695;DHT22;70059;42.702;23.312;2023-10-08T01:22:15;13.00;46.80
80695;DHT22;70059;42.702;23.312;2023-10-08T01:24:45;13.00;47.00
80695;DHT22;70059;42.702;23.312;2023-10-08T01:27:18;12.90;47.10
80695;DHT22;70059;42.702;23.312;2023-10-08T01:29:53;12.80;47.10
80695;DHT22;70059;42.702;23.312;2023-10-08T01:32:22;12.90;47.40
80695;DHT22;70059;42.702;23.312;2023-10-08T01:34:49;12.90;47.40
80695;DHT22;70059;42.702;23.312;2023-10-08T01:37:18;12.90;47.20
80695;DHT22;70059;42.702;23.312;2023-10-08T01:39:45;12.90;47.00
80695;DHT22;70059;42.702;23.312;2023-10-08T01:42:14;12.90;47.60
80695;DHT22;70059;42.702;23.312;2023-10-08T01:44:47;12.80;47.70
80695;DHT22;70059;42.702;23.312;2023-10-08T01:47:16;12.80;48.10
80695;DHT22;70059;42.702;23.312;2023-10-08T01:49:43;12.70;48.30
80695;DHT22;70059;42.702;23.312;2023-10-08T01:52:11;12.80;48.60
80695;DHT22;70059;42.702;23.312;2023-10-08T01:54:46;12.80;47.60
80695;DHT22;70059;42.702;23.312;2023-10-08T01:57:11;12.70;47.90
80695;DHT22;70059;42.702;23.312;2023-10-08T01:59:38;12.70;48.40
80695;DHT22;70059;42.702;23.312;2023-10-08T02:02:05;12.70;48.50
80695;DHT22;70059;42.702;23.312;2023-10-08T02:04:33;12.70;48.10
80695;DHT22;70059;42.702;23.312;2023-10-08T02:07:05;12.70;47.90
80695;DHT22;70059;42.702;23.312;2023-10-08T02:09:34;12.60;48.20
80695;DHT22;70059;42.702;23.312;2023-10-08T02:12:00;12.70;47.90
80695;DHT22;70059;42.702;23.312;2023-10-08T02:14:26;12.70;47.80
80695;DHT22;70059;42.702;23.312;2023-10-08T02:16:55;12.70;48.00
80695;DHT22;70059;42.702;23.312;2023-10-08T02:19:22;12.70;48.50
80695;DHT22;70059;42.702;23.312;2023-10-08T02:21:53;12.70;48.50
80695;DHT22;70059;42.702;23.312;2023-10-08T02:24:20;12.60;48.50
80695;DHT22;70059;42.702;23.312;2023-10-08T02:26:47;12.50;48.60
80695;DHT22;70059;42.702;23.312;2023-10-08T02:29:13;12.60;48.50
80695;DHT22;70059;42.702;23.312;2023-10-08T02:31:39;12.50;49.00
80695;DHT22;70059;42.702;23.312;2023-10-08T02:34:06;12.50;50.10
80695;DHT22;70059;42.702;23.312;2023-10-08T02:36:39;12.50;49.70
80695;DHT22;70059;42.702;23.312;2023-10-08T02:39:08;12.50;49.40
80695;DHT22;70059;42.702;23.312;2023-10-08T02:41:53;12.50;49.80
80695;DHT22;70059;42.702;23.312;2023-10-08T02:44:22;12.60;49.70
80695;DHT22;70059;42.702;23.312;2023-10-08T02:46:49;12.50;49.50
80695;DHT22;70059;42.702;23.312;2023-10-08T02:49:16;12.50;50.90
80695;DHT22;70059;42.702;23.312;2023-10-08T02:51:52;12.50;49.70
80695;DHT22;70059;42.702;23.312;2023-10-08T02:54:19;12.60;48.60
80695;DHT22;70059;42.702;23.312;2023-10-08T02:56:58;12.60;49.30
80695;DHT22;70059;42.702;23.312;2023-10-08T02:59:34;12.50;49.30
80695;DHT22;70059;42.702;23.312;2023-10-08T03:02:12;12.50;49.20
80695;DHT22;70059;42.702;23.312;2023-10-08T03:04:55;12.40;49.50
80695;DHT22;70059;42.702;23.312;2023-10-08T03:07:22;12.40;49.60
80695;DHT22;70059;42.702;23.312;2023-10-08T03:09:58;12.40;50.00
80695;DHT22;70059;42.702;23.312;2023-10-08T03:12:42;12.30;50.40
80695;DHT22;70059;42.702;23.312;2023-10-08T03:15:08;12.30;51.10
80695;DHT22;70059;42.702;23.312;2023-10-08T03:17:40;12.30;51.80
80695;DHT22;70059;42.702;23.312;2023-10-08T03:20:21;12.20;54.20
80695;DHT22;70059;42.702;23.312;2023-10-08T03:22:54;12.20;54.20
80695;DHT22;70059;42.702;23.312;2023-10-08T03:25:22;12.20;54.80
80695;DHT22;70059;42.702;23.312;2023-10-08T03:27:50;12.20;56.00
80695;DHT22;70059;42.702;23.312;2023-10-08T03:30:16;12.20;56.70
80695;DHT22;70059;42.702;23.312;2023-10-08T03:32:45;12.30;54.40
80695;DHT22;70059;42.702;23.312;2023-10-08T03:35:10;12.30;53.70
80695;DHT22;70059;42.702;23.312;2023-10-08T03:37:38;12.20;53.30
80695;DHT22;70059;42.702;23.312;2023-10-08T03:40:08;12.20;53.40
80695;DHT22;70059;42.702;23.312;2023-10-08T03:42:55;12.20;52.80
80695;DHT22;70059;42.702;23.312;2023-10-08T03:45:21;12.20;53.50
80695;DHT22;70059;42.702;23.312;2023-10-08T03:48:06;12.20;53.80
80695;DHT22;70059;42.702;23.312;2023-10-08T03:50:33;12.20;53.30
80695;DHT22;70059;42.702;23.312;2023-10-08T03:53:07;12.10;52.00
80695;DHT22;70059;42.702;23.312;2023-10-08T03:55:38;12.10;53.40
80695;DHT22;70059;42.702;23.312;2023-10-08T03:58:07;12.10;53.10
80695;DHT22;70059;42.702;23.312;2023-10-08T04:00:36;12.10;53.20
80695;DHT22;70059;42.702;23.312;2023-10-08T04:03:07;12.00;53.90
80695;DHT22;70059;42.702;23.312;2023-10-08T04:05:48;12.00;54.50
80695;DHT22;70059;42.702;23.312;2023-10-08T04:08:40;11.90;54.20
80695;DHT22;70059;42.702;23.312;2023-10-08T04:11:12;12.00;54.50
80695;DHT22;70059;42.702;23.312;2023-10-08T04:13:57;12.00;54.40
80695;DHT22;70059;42.702;23.312;2023-10-08T04:16:31;12.00;53.50
80695;DHT22;70059;42.702;23.312;2023-10-08T04:19:05;12.00;53.40
80695;DHT22;70059;42.702;23.312;2023-10-08T04:21:33;11.90;54.50
80695;DHT22;70059;42.702;23.312;2023-10-08T04:24:02;11.90;53.90
80695;DHT22;70059;42.702;23.312;2023-10-08T04:26:31;11.90;54.20
80695;DHT22;70059;42.702;23.312;2023-10-08T04:28:59;11.80;54.10
80695;DHT22;70059;42.702;23.312;2023-10-08T04:31:31;11.90;53.80
80695;DHT22;70059;42.702;23.312;2023-10-08T04:34:09;11.70;53.20
80695;DHT22;70059;42.702;23.312;2023-10-08T04:36:48;11.70;53.60
80695;DHT22;70059;42.702;23.312;2023-10-08T04:39:20;11.70;54.00
80695;DHT22;70059;42.702;23.312;2023-10-08T04:41:52;11.80;53.50
80695;DHT22;70059;42.702;23.312;2023-10-08T04:44:24;11.80;53.30
80695;DHT22;70059;42.702;23.312;2023-10-08T04:46:52;11.80;53.50
80695;DHT22;70059;42.702;23.312;2023-10-08T04:49:18;11.80;52.70
80695;DHT22;70059;42.702;23.312;2023-10-08T04:52:04;11.80;53.30
80695;DHT22;70059;42.702;23.312;2023-10-08T04:54:34;11.70;53.40
80695;DHT22;70059;42.702;23.312;2023-10-08T04:57:06;11.70;53.20
80695;DHT22;70059;42.702;23.312;2023-10-08T04:59:32;11.70;52.80
80695;DHT22;70059;42.702;23.312;2023-10-08T05:02:04;11.70;52.60
80695;DHT22;70059;42.702;23.312;2023-10-08T05:04:51;11.70;52.50
80695;DHT22;70059;42.702;23.312;2023-10-08T05:07:17;11.80;52.70
80695;DHT22;70059;42.702;23.312;2023-10-08T05:09:48;11.90;52.20
80695;DHT22;70059;42.702;23.312;2023-10-08T05:12:35;12.00;52.10
80695;DHT22;70059;42.702;23.312;2023-10-08T05:15:12;11.90;52.10
80695;DHT22;70059;42.702;23.312;2023-10-08T05:17:39;11.90;52.10
80695;DHT22;70059;42.702;23.312;2023-10-08T05:20:17;11.80;51.70
80695;DHT22;70059;42.702;23.312;2023-10-08T05:23:17;11.90;51.20
80695;DHT22;70059;42.702;23.312;2023-10-08T05:25:50;12.00;51.00
80695;DHT22;70059;42.702;23.312;2023-10-08T05:28:38;12.00;51.80
80695;DHT22;70059;42.702;23.312;2023-10-08T05:31:28;12.10;51.70
80695;DHT22;70059;42.702;23.312;2023-10-08T05:34:06;12.10;50.90
80695;DHT22;70059;42.702;23.312;2023-10-08T05:36:46;12.00;51.50
80695;DHT22;70059;42.702;23.312;2023-10-08T05:39:30;12.00;51.60
80695;DHT22;70059;42.702;23.312;2023-10-08T05:42:08;12.10;50.10
80695;DHT22;70059;42.702;23.312;2023-10-08T05:44:57;12.30;49.40
80695;DHT22;70059;42.702;23.312;2023-10-08T05:47:35;12.40;49.30
80695;DHT22;70059;42.702;23.312;2023-10-08T05:50:02;12.40;49.10
80695;DHT22;70059;42.702;23.312;2023-10-08T05:52:45;12.50;48.60
80695;DHT22;70059;42.702;23.312;2023-10-08T05:55:27;12.50;49.20
80695;DHT22;70059;42.702;23.312;2023-10-08T05:58:06;12.70;49.50
80695;DHT22;70059;42.702;23.312;2023-10-08T06:00:46;12.70;48.10
80695;DHT22;70059;42.702;23.312;2023-10-08T06:03:31;12.70;49.40
80695;DHT22;70059;42.702;23.312;2023-10-08T06:06:06;12.90;48.40
80695;DHT22;70059;42.702;23.312;2023-10-08T06:08:39;12.90;48.70
80695;DHT22;70059;42.702;23.312;2023-10-08T06:11:23;12.90;47.60
80695;DHT22;70059;42.702;23.312;2023-10-08T06:14:11;12.80;48.10
80695;DHT22;70059;42.702;23.312;2023-10-08T06:16:45;13.00;48.50
80695;DHT22;70059;42.702;23.312;2023-10-08T06:19:13;13.10;49.10
80695;DHT22;70059;42.702;23.312;2023-10-08T06:21:42;13.30;48.00
80695;DHT22;70059;42.702;23.312;2023-10-08T06:24:09;13.40;48.30
80695;DHT22;70059;42.702;23.312;2023-10-08T06:26:38;13.60;47.60
80695;DHT22;70059;42.702;23.312;2023-10-08T06:29:14;13.80;46.70
80695;DHT22;70059;42.702;23.312;2023-10-08T06:32:06;14.00;46.30
80695;DHT22;70059;42.702;23.312;2023-10-08T06:34:32;14.20;46.40
80695;DHT22;70059;42.702;23.312;2023-10-08T06:36:59;14.50;45.40
80695;DHT22;70059;42.702;23.312;2023-10-08T06:39:25;14.70;44.30
80695;DHT22;70059;42.702;23.312;2023-10-08T06:42:11;15.00;43.30
80695;DHT22;70059;42.702;23.312;2023-10-08T06:44:37;15.40;42.40
80695;DHT22;70059;42.702;23.312;2023-10-08T06:47:04;15.60;41.80
80695;DHT22;70059;42.702;23.312;2023-10-08T06:49:35;16.00;41.20
80695;DHT22;70059;42.702;23.312;2023-10-08T06:52:01;16.30;40.40
80695;DHT22;70059;42.702;23.312;2023-10-08T06:54:27;16.70;40.20
80695;DHT22;70059;42.702;23.312;2023-10-08T06:56:56;17.30;38.00
80695;DHT22;70059;42.702;23.312;2023-10-08T06:59:22;17.80;36.70
80695;DHT22;70059;42.702;23.312;2023-10-08T07:01:51;18.50;35.20
80695;DHT22;70059;42.702;23.312;2023-10-08T07:04:18;19.30;33.20
80695;DHT22;70059;42.702;23.312;2023-10-08T07:06:47;19.80;31.70
80695;DHT22;70059;42.702;23.312;2023-10-08T07:09:13;20.40;30.80
80695;DHT22;70059;42.702;23.312;2023-10-08T07:11:57;21.10;29.20
80695;DHT22;70059;42.702;23.312;2023-10-08T07:14:27;21.50;28.80
80695;DHT22;70059;42.702;23.312;2023-10-08T07:16:57;22.20;28.40
80695;DHT22;70059;42.702;23.312;2023-10-08T07:19:27;23.00;26.70
80695;DHT22;70059;42.702;23.312;2023-10-08T07:22:08;23.40;25.50
80695;DHT22;70059;42.702;23.312;2023-10-08T07:24:53;23.80;25.30
80695;DHT22;70059;42.702;23.312;2023-10-08T07:27:20;24.30;24.70
80695;DHT22;70059;42.702;23.312;2023-10-08T07:29:55;24.70;24.40
80695;DHT22;70059;42.702;23.312;2023-10-08T07:32:21;25.30;23.60
80695;DHT22;70059;42.702;23.312;2023-10-08T07:34:47;25.80;22.70
80695;DHT22;70059;42.702;23.312;2023-10-08T07:37:13;26.50;22.10
80695;DHT22;70059;42.702;23.312;2023-10-08T07:39:41;27.00;21.50
80695;DHT22;70059;42.702;23.312;2023-10-08T07:42:12;27.30;20.60
80695;DHT22;70059;42.702;23.312;2023-10-08T07:44:37;27.90;20.30
80695;DHT22;70059;42.702;23.312;2023-10-08T07:47:05;28.40;19.10
80695;DHT22;70059;42.702;23.312;2023-10-08T07:49:39;29.00;18.90
80695;DHT22;70059;42.702;23.312;2023-10-08T07:52:05;29.50;18.10
80695;DHT22;70059;42.702;23.312;2023-10-08T07:54:32;29.50;18.00
80695;DHT22;70059;42.702;23.312;2023-10-08T07:57:01;30.10;17.80
80695;DHT22;70059;42.702;23.312;2023-10-08T07:59:45;30.40;17.50
80695;DHT22;70059;42.702;23.312;2023-10-08T08:02:15;31.10;16.90
80695;DHT22;70059;42.702;23.312;2023-10-08T08:04:43;31.70;16.30
80695;DHT22;70059;42.702;23.312;2023-10-08T08:07:11;32.00;16.00
80695;DHT22;70059;42.702;23.312;2023-10-08T08:09:44;32.30;15.70
80695;DHT22;70059;42.702;23.312;2023-10-08T08:12:22;32.90;15.40
80695;DHT22;70059;42.702;23.312;2023-10-08T08:14:51;33.50;14.70
80695;DHT22;70059;42.702;23.312;2023-10-08T08:17:22;34.30;14.20
80695;DHT22;70059;42.702;23.312;2023-10-08T08:19:49;34.90;13.10
80695;DHT22;70059;42.702;23.312;2023-10-08T08:22:16;35.20;13.60
80695;DHT22;70059;42.702;23.312;2023-10-08T08:24:50;34.70;11.20
80695;DHT22;70059;42.702;23.312;2023-10-08T08:27:19;34.00;11.40
80695;DHT22;70059;42.702;23.312;2023-10-08T08:30:00;34.40;11.20
80695;DHT22;70059;42.702;23.312;2023-10-08T08:32:36;34.10;10.80
80695;DHT22;70059;42.702;23.312;2023-10-08T08:35:06;33.80;11.40
80695;DHT22;70059;42.702;23.312;2023-10-08T08:37:33;33.20;11.60
80695;DHT22;70059;42.702;23.312;2023-10-08T08:40:02;33.00;12.20
80695;DHT22;70059;42.702;23.312;2023-10-08T08:42:33;32.10;11.90
80695;DHT22;70059;42.702;23.312;2023-10-08T08:45:03;32.60;13.10
80695;DHT22;70059;42.702;23.312;2023-10-08T08:47:35;33.80;11.70
80695;DHT22;70059;42.702;23.312;2023-10-08T08:50:02;34.20;10.90
80695;DHT22;70059;42.702;23.312;2023-10-08T08:52:38;35.00;10.50
80695;DHT22;70059;42.702;23.312;2023-10-08T08:55:07;35.40;9.80
80695;DHT22;70059;42.702;23.312;2023-10-08T08:57:41;32.00;12.50
80695;DHT22;70059;42.702;23.312;2023-10-08T09:00:08;32.00;12.90
80695;DHT22;70059;42.702;23.312;2023-10-08T09:02:41;32.90;12.50
80695;DHT22;70059;42.702;23.312;2023-10-08T09:05:07;33.00;11.70
80695;DHT22;70059;42.702;23.312;2023-10-08T09:08:02;32.70;12.10
80695;DHT22;70059;42.702;23.312;2023-10-08T09:10:31;32.20;12.60
80695;DHT22;70059;42.702;23.312;2023-10-08T09:13:03;32.00;13.30
80695;DHT22;70059;42.702;23.312;2023-10-08T09:15:30;31.50;13.30
80695;DHT22;70059;42.702;23.312;2023-10-08T09:17:58;30.90;13.80
80695;DHT22;70059;42.702;23.312;2023-10-08T09:20:27;29.30;14.90
80695;DHT22;70059;42.702;23.312;2023-10-08T09:23:13;29.20;15.40
80695;DHT22;70059;42.702;23.312;2023-10-08T09:25:45;31.00;13.80
80695;DHT22;70059;42.702;23.312;2023-10-08T09:28:15;32.20;12.70
80695;DHT22;70059;42.702;23.312;2023-10-08T09:30:42;33.90;11.20
80695;DHT22;70059;42.702;23.312;2023-10-08T09:33:11;34.80;10.40
80695;DHT22;70059;42.702;23.312;2023-10-08T09:35:43;35.80;10.10
80695;DHT22;70059;42.702;23.312;2023-10-08T09:38:11;33.70;10.00
80695;DHT22;70059;42.702;23.312;2023-10-08T09:40:41;32.50;11.80
80695;DHT22;70059;42.702;23.312;2023-10-08T09:43:12;31.70;12.50
80695;DHT22;70059;42.702;23.312;2023-10-08T09:45:43;31.10;13.90
80695;DHT22;70059;42.702;23.312;2023-10-08T09:48:11;32.00;12.70
80695;DHT22;70059;42.702;23.312;2023-10-08T09:50:40;31.60;12.60
80695;DHT22;70059;42.702;23.312;2023-10-08T09:53:11;30.30;13.90
80695;DHT22;70059;42.702;23.312;2023-10-08T09:58:20;27.90;16.80
80695;DHT22;70059;42.702;23.312;2023-10-08T10:00:48;27.40;17.30
80695;DHT22;70059;42.702;23.312;2023-10-08T10:03:15;26.30;18.80
80695;DHT22;70059;42.702;23.312;2023-10-08T10:05:44;26.00;19.00
80695;DHT22;70059;42.702;23.312;2023-10-08T10:08:10;26.00;19.30
80695;DHT22;70059;42.702;23.312;2023-10-08T10:10:37;26.60;18.70
80695;DHT22;70059;42.702;23.312;2023-10-08T10:13:12;27.10;18.50
80695;DHT22;70059;42.702;23.312;2023-10-08T10:15:38;27.80;17.70
80695;DHT22;70059;42.702;23.312;2023-10-08T10:18:15;28.90;15.20
80695;DHT22;70059;42.702;23.312;2023-10-08T10:21:30;31.50;13.80
80695;DHT22;70059;42.702;23.312;2023-10-08T10:23:39;33.60;12.00
80695;DHT22;70059;42.702;23.312;2023-10-08T10:26:23;34.90;10.30
80695;DHT22;70059;42.702;23.312;2023-10-08T10:34:14;38.10;8.50
80695;DHT22;70059;42.702;23.312;2023-10-08T10:36:42;38.70;8.80
80695;DHT22;70059;42.702;23.312;2023-10-08T10:39:10;39.60;7.60
80695;DHT22;70059;42.702;23.312;2023-10-08T10:41:48;40.20;7.40
80695;DHT22;70059;42.702;23.312;2023-10-08T10:44:15;40.10;7.30
80695;DHT22;70059;42.702;23.312;2023-10-08T10:46:45;40.80;7.20
80695;DHT22;70059;42.702;23.312;2023-10-08T10:49:21;40.90;6.90
80695;DHT22;70059;42.702;23.312;2023-10-08T10:51:50;41.30;6.80
80695;DHT22;70059;42.702;23.312;2023-10-08T10:54:24;41.10;6.70
80695;DHT22;70059;42.702;23.312;2023-10-08T10:56:51;41.80;6.50
80695;DHT22;70059;42.702;23.312;2023-10-08T10:59:30;42.00;6.20
80695;DHT22;70059;42.702;23.312;2023-10-08T11:02:06;40.40;6.50
80695;DHT22;70059;42.702;23.312;2023-10-08T11:04:47;40.20;7.30
80695;DHT22;70059;42.702;23.312;2023-10-08T11:07:18;39.10;7.40
80695;DHT22;70059;42.702;23.312;2023-10-08T11:09:46;39.30;7.90
80695;DHT22;70059;42.702;23.312;2023-10-08T11:12:14;40.10;7.30
80695;DHT22;70059;42.702;23.312;2023-10-08T11:14:46;40.80;6.90
80695;DHT22;70059;42.702;23.312;2023-10-08T11:17:16;41.10;6.40
80695;DHT22;70059;42.702;23.312;2023-10-08T11:19:43;41.70;6.30
80695;DHT22;70059;42.702;23.312;2023-10-08T11:22:12;41.00;6.80
80695;DHT22;70059;42.702;23.312;2023-10-08T11:24:42;40.90;6.60
80695;DHT22;70059;42.702;23.312;2023-10-08T11:27:13;39.80;7.00
80695;DHT22;70059;42.702;23.312;2023-10-08T11:29:49;37.60;8.30
80695;DHT22;70059;42.702;23.312;2023-10-08T11:32:24;37.20;9.30
80695;DHT22;70059;42.702;23.312;2023-10-08T11:34:59;37.10;9.70
80695;DHT22;70059;42.702;23.312;2023-10-08T11:37:30;36.20;10.40
80695;DHT22;70059;42.702;23.312;2023-10-08T11:39:59;35.70;10.80
80695;DHT22;70059;42.702;23.312;2023-10-08T11:42:28;33.40;12.60
80695;DHT22;70059;42.702;23.312;2023-10-08T11:44:56;31.70;14.10
80695;DHT22;70059;42.702;23.312;2023-10-08T11:47:27;32.00;14.50
80695;DHT22;70059;42.702;23.312;2023-10-08T11:50:01;30.90;14.40
80695;DHT22;70059;42.702;23.312;2023-10-08T11:52:37;31.10;15.50
80695;DHT22;70059;42.702;23.312;2023-10-08T11:55:10;30.60;15.70
80695;DHT22;70059;42.702;23.312;2023-10-08T11:57:46;30.50;15.90
80695;DHT22;70059;42.702;23.312;2023-10-08T12:00:15;29.80;16.40
80695;DHT22;70059;42.702;23.312;2023-10-08T12:02:51;29.00;16.90
80695;DHT22;70059;42.702;23.312;2023-10-08T12:05:21;27.60;18.70
80695;DHT22;70059;42.702;23.312;2023-10-08T12:07:51;27.60;19.00
80695;DHT22;70059;42.702;23.312;2023-10-08T12:10:21;28.00;19.00
80695;DHT22;70059;42.702;23.312;2023-10-08T12:12:51;28.70;18.40
80695;DHT22;70059;42.702;23.312;2023-10-08T12:15:25;29.60;17.60
80695;DHT22;70059;42.702;23.312;2023-10-08T12:18:00;29.40;17.20
80695;DHT22;70059;42.702;23.312;2023-10-08T12:20:38;29.50;17.50
80695;DHT22;70059;42.702;23.312;2023-10-08T12:23:05;28.80;17.60
80695;DHT22;70059;42.702;23.312;2023-10-08T12:25:32;28.70;18.40
80695;DHT22;70059;42.702;23.312;2023-10-08T12:28:01;28.70;18.40
80695;DHT22;70059;42.702;23.312;2023-10-08T12:30:31;28.80;17.80
80695;DHT22;70059;42.702;23.312;2023-10-08T12:33:00;28.20;19.00
80695;DHT22;70059;42.702;23.312;2023-10-08T12:35:26;28.20;18.80
80695;DHT22;70059;42.702;23.312;2023-10-08T12:37:55;29.00;18.20
80695;DHT22;70059;42.702;23.312;2023-10-08T12:40:20;30.10;17.00
80695;DHT22;70059;42.702;23.312;2023-10-08T12:42:53;30.20;16.50
80695;DHT22;70059;42.702;23.312;2023-10-08T12:45:20;30.00;17.30
80695;DHT22;70059;42.702;23.312;2023-10-08T12:47:49;30.20;17.20
80695;DHT22;70059;42.702;23.312;2023-10-08T12:50:17;30.10;16.90
80695;DHT22;70059;42.702;23.312;2023-10-08T12:52:50;29.50;17.40
80695;DHT22;70059;42.702;23.312;2023-10-08T12:55:23;29.60;17.60
80695;DHT22;70059;42.702;23.312;2023-10-08T12:57:53;29.70;17.60
80695;DHT22;70059;42.702;23.312;2023-10-08T13:00:29;30.20;17.40
80695;DHT22;70059;42.702;23.312;2023-10-08T13:02:56;31.00;16.60
80695;DHT22;70059;42.702;23.312;2023-10-08T13:05:23;31.50;15.30
80695;DHT22;70059;42.702;23.312;2023-10-08T13:07:56;31.30;15.80
80695;DHT22;70059;42.702;23.312;2023-10-08T13:10:25;31.30;15.80
80695;DHT22;70059;42.702;23.312;2023-10-08T13:12:51;31.30;15.10
80695;DHT22;70059;42.702;23.312;2023-10-08T13:15:17;30.40;16.40
80695;DHT22;70059;42.702;23.312;2023-10-08T13:17:43;30.20;16.50
80695;DHT22;70059;42.702;23.312;2023-10-08T13:20:12;30.80;16.10
80695;DHT22;70059;42.702;23.312;2023-10-08T13:22:39;31.40;15.30
80695;DHT22;70059;42.702;23.312;2023-10-08T13:25:05;32.40;14.60
80695;DHT22;70059;42.702;23.312;2023-10-08T13:27:32;33.50;13.90
80695;DHT22;70059;42.702;23.312;2023-10-08T13:29:57;33.40;13.40
80695;DHT22;70059;42.702;23.312;2023-10-08T13:32:24;34.00;13.50
80695;DHT22;70059;42.702;23.312;2023-10-08T13:34:50;34.50;12.60
80695;DHT22;70059;42.702;23.312;2023-10-08T13:37:16;34.80;12.80
80695;DHT22;70059;42.702;23.312;2023-10-08T13:39:42;34.60;12.70
80695;DHT22;70059;42.702;23.312;2023-10-08T13:42:07;34.30;12.60
80695;DHT22;70059;42.702;23.312;2023-10-08T13:44:34;32.90;13.90
80695;DHT22;70059;42.702;23.312;2023-10-08T13:47:01;32.50;14.50
80695;DHT22;70059;42.702;23.312;2023-10-08T13:49:31;31.70;14.60
80695;DHT22;70059;42.702;23.312;2023-10-08T13:51:58;31.00;16.00
80695;DHT22;70059;42.702;23.312;2023-10-08T13:54:24;30.40;16.40
80695;DHT22;70059;42.702;23.312;2023-10-08T13:56:58;29.70;16.90
80695;DHT22;70059;42.702;23.312;2023-10-08T13:59:26;28.70;18.10
80695;DHT22;70059;42.702;23.312;2023-10-08T14:01:55;28.10;18.70
80695;DHT22;70059;42.702;23.312;2023-10-08T14:04:22;28.00;19.20
80695;DHT22;70059;42.702;23.312;2023-10-08T14:06:55;27.90;19.30
80695;DHT22;70059;42.702;23.312;2023-10-08T14:09:24;27.80;19.40
80695;DHT22;70059;42.702;23.312;2023-10-08T14:12:02;27.50;19.60
80695;DHT22;70059;42.702;23.312;2023-10-08T14:14:29;27.50;19.90
80695;DHT22;70059;42.702;23.312;2023-10-08T14:17:00;27.00;20.10
80695;DHT22;70059;42.702;23.312;2023-10-08T14:19:32;26.90;20.40
80695;DHT22;70059;42.702;23.312;2023-10-08T14:22:18;26.70;20.70
80695;DHT22;70059;42.702;23.312;2023-10-08T14:24:47;26.60;21.00
80695;DHT22;70059;42.702;23.312;2023-10-08T14:27:27;26.60;21.10
80695;DHT22;70059;42.702;23.312;2023-10-08T14:29:59;26.40;21.30
80695;DHT22;70059;42.702;23.312;2023-10-08T14:32:30;26.30;21.30
80695;DHT22;70059;42.702;23.312;2023-10-08T14:34:58;26.00;21.50
80695;DHT22;70059;42.702;23.312;2023-10-08T14:37:24;25.80;21.70
80695;DHT22;70059;42.702;23.312;2023-10-08T14:40:08;25.70;21.80
80695;DHT22;70059;42.702;23.312;2023-10-08T14:42:52;25.40;22.10
80695;DHT22;70059;42.702;23.312;2023-10-08T14:45:31;25.20;22.10
80695;DHT22;70059;42.702;23.312;2023-10-08T14:47:58;25.20;22.50
80695;DHT22;70059;42.702;23.312;2023-10-08T14:50:25;25.30;22.40
80695;DHT22;70059;42.702;23.312;2023-10-08T14:52:58;25.30;22.40
80695;DHT22;70059;42.702;23.312;2023-10-08T14:55:31;25.00;22.30
80695;DHT22;70059;42.702;23.312;2023-10-08T14:57:59;24.80;22.70
80695;DHT22;70059;42.702;23.312;2023-10-08T15:00:31;24.80;23.40
80695;DHT22;70059;42.702;23.312;2023-10-08T15:02:57;24.80;23.10
80695;DHT22;70059;42.702;23.312;2023-10-08T15:05:25;24.50;23.50
80695;DHT22;70059;42.702;23.312;2023-10-08T15:07:51;24.40;23.70
80695;DHT22;70059;42.702;23.312;2023-10-08T15:10:17;24.40;24.00
80695;DHT22;70059;42.702;23.312;2023-10-08T15:12:43;24.40;24.30
80695;DHT22;70059;42.702;23.312;2023-10-08T15:15:09;24.30;24.10
80695;DHT22;70059;42.702;23.312;2023-10-08T15:17:41;24.20;24.40
80695;DHT22;70059;42.702;23.312;2023-10-08T15:20:12;24.10;24.60
80695;DHT22;70059;42.702;23.312;2023-10-08T15:22:42;24.00;24.80
80695;DHT22;70059;42.702;23.312;2023-10-08T15:25:13;23.80;24.90
80695;DHT22;70059;42.702;23.312;2023-10-08T15:27:40;23.80;25.10
80695;DHT22;70059;42.702;23.312;2023-10-08T15:30:10;23.60;25.40
80695;DHT22;70059;42.702;23.312;2023-10-08T15:32:40;23.60;25.80
80695;DHT22;70059;42.702;23.312;2023-10-08T15:35:07;23.60;25.80
80695;DHT22;70059;42.702;23.312;2023-10-08T15:37:38;23.60;25.80
80695;DHT22;70059;42.702;23.312;2023-10-08T15:40:06;23.50;25.80
80695;DHT22;70059;42.702;23.312;2023-10-08T15:42:33;23.40;26.00
80695;DHT22;70059;42.702;23.312;2023-10-08T15:45:01;23.30;26.60
80695;DHT22;70059;42.702;23.312;2023-10-08T15:47:28;23.30;26.60
80695;DHT22;70059;42.702;23.312;2023-10-08T15:49:53;23.20;26.60
80695;DHT22;70059;42.702;23.312;2023-10-08T15:52:19;23.10;26.50